Melbourne, Victoria

6:44 AM AEST on August 30, 2016 (GMT +1000)
Temple Park | | Change Station

Elev 161 ft 37.77 °S, 144.95 °E | Updated 2 minutes ago

Clear
Clear
51.3 °F
Feels Like 51.3 °F
N
0.0
Wind Variable Wind from NNE
Gusts 0.0 mph

Today
High -- | Low -- °F
--% Chance of Precip.
Yesterday
High -- | Low -- °F
Precip. -- in
Pressure 30.12 in
Visibility -9999.0 miles
Clouds
Dew Point 45 °F
Humidity 78%
Rainfall 0.00 in
Snow Depth Not available.
6:44 AM 5:57 PM
Waning Crescent, 7% visible
METAR YMML 292030Z 01011KT CAVOK 12/05 Q1020 FM2200 02016G28KT 9999 -RA FEW020 BKN080 FM2030 MOD TURB BLW 5000FT FM2100 MOD/SEV TURB BLW 5000FT
Pressure 30.12 in
Visibility -9999.0 miles
Clouds
Dew Point 45 °F
Humidity 78%
Rainfall 0.00 in
Snow Depth Not available.
6:44 AM 5:57 PM
Waning Crescent, 7% visible
METAR YMML 292030Z 01011KT CAVOK 12/05 Q1020 FM2200 02016G28KT 9999 -RA FEW020 BKN080 FM2030 MOD TURB BLW 5000FT FM2100 MOD/SEV TURB BLW 5000FT

10-Day Weather Forecast

Almanac

Astronomy

Aug. 30, 2016 Rise Set
Actual Time
Civil Twilight
Nautical Twilight
Astronomical Twilight
Moon
Length of Visible Light
Length of Day
Tomorrow will be .
, % of the Moon is Illuminated

Today's Extremes

Country Highs Country Lows

Community

WunderPhotos

Upload Photos

1,935,676 photos uploaded!

WunderBlog® & News

Nearby

Air Quality

  Air Quality AQ Index Pollutant
Not available.

Snow Depth

Station Depth Elevation

Earthquake Activity

City Distance Mag. Time & Date
Minimum magnitude displayed is 2.5.

Coastal Water Temperatures

Place Temperature

Stations

Nearby Weather Stations

Station Location Temp. Windchill Dew Point Humidity Wind Precip. Elev Updated Type